Riverton, WY (82501)

5:18 PM MST on February 06, 2016 (GMT -0700)
Logan Park | | Change Station
CLOSE
Current Station
Personal Weather Station
Location: Riverton, WY
Elevation: 4984 ft
Nearby Weather Stations

Elev 4984 ft 43.04 °N, 108.39 °W | Updated 16 seconds ago

Clear
Clear
44.0 °F
Feels Like 38 °F
N
11.0
Wind Variable Wind from NW
Gusts 14.0 mph

Today
High -- | Low -- °F
--% Chance of Precip.
Yesterday
High -- | Low -- °F
Precip. -- in
Pressure 30.19 in
Visibility 10.0 miles
Clouds Clear
Windchill 38 °F
Dew Point 21 °F
Humidity 38%
Rainfall 0.00 in
Snow Depth Not available.
7:23 AM 5:32 PM
Waning Crescent, 3% visible
METAR KRIW 062353Z AUTO 35006KT 10SM CLR 07/M07 A3012 RMK AO2 SLP222 T00721072 10089 21017 51011 $
Pressure 30.19 in
Visibility 10.0 miles
Clouds Clear
Windchill 38 °F
Dew Point 21 °F
Humidity 38%
Rainfall 0.00 in
Snow Depth Not available.
7:23 AM 5:32 PM
Waning Crescent, 3% visible
METAR KRIW 062353Z AUTO 35006KT 10SM CLR 07/M07 A3012 RMK AO2 SLP222 T00721072 10089 21017 51011 $

10-Day Weather Forecast

Almanac

Astronomy

Feb. 06, 2016 Rise Set
Actual Time
Civil Twilight
Nautical Twilight
Astronomical Twilight
Moon
Length of Visible Light
Length of Day
Tomorrow will be .
, % of the Moon is Illuminated

Today's Extremes

State Highs State Lows

Community

WunderPhotos

Upload Photos

1,891,105 photos uploaded!

WunderBlog® & News

Nearby

Air Quality

  Air Quality AQ Index Pollutant
Not available.

Snow Depth

Station Depth Elevation

Earthquake Activity

City Distance Mag. Time & Date
Minimum magnitude displayed is 2.5.

Coastal Water Temperatures

Place Temperature

Stations

Nearby Weather Stations

Station Location Temp. Windchill Dew Point Humidity Wind Precip. Elev Updated Type
                   

Watches & Warnings

There are currently no watches in effect.